Time;durP1;ratioP1;P1;durP2;ratioP2;P2;SDS_P1;SDS_P2;PMS_P1;PMS_P2;Temp;Humidity;BMP_temperature;BMP_pressure;BME280_temperature;BME280_humidity;BME280_pressure;Samples;Min_cycle;Max_cycle;Signal;HPM_P1;HPM_P2
2022/01/18 00:02:30;;;;;;;22.20;13.10;;;4.40;99.90;;;;;;5053955;28;20455;-88
2022/01/18 00:05:02;;;;;;;25.40;13.47;;;4.30;99.90;;;;;;5053756;28;20206;-90
2022/01/18 00:07:35;;;;;;;31.77;14.43;;;4.40;99.90;;;;;;5053929;28;20209;-88
2022/01/18 00:10:08;;;;;;;26.53;14.17;;;4.30;99.90;;;;;;5053719;28;20202;-89
2022/01/18 00:16:23;;;;;;;28.33;14.17;;;4.10;99.90;;;;;;5054110;28;21027;-89
2022/01/18 00:19:07;;;;;;;25.37;14.03;;;4.10;99.90;;;;;;5054216;28;20455;-88
2022/01/18 00:21:49;;;;;;;22.83;14.40;;;4.10;99.90;;;;;;5054234;28;20805;-90
2022/01/18 00:24:22;;;;;;;25.63;15.07;;;4.10;99.90;;;;;;5053989;28;20206;-88
2022/01/18 00:26:52;;;;;;;29.73;15.07;;;4.10;99.90;;;;;;5052984;28;20669;-89
2022/01/18 00:29:26;;;;;;;36.40;17.17;;;3.90;99.90;;;;;;5053704;28;20201;-89
2022/01/18 00:32:08;;;;;;;31.53;16.57;;;3.80;99.90;;;;;;5053906;28;20257;-90
2022/01/18 00:34:37;;;;;;;35.17;17.37;;;3.90;99.90;;;;;;5054069;28;20210;-87
2022/01/18 00:39:54;;;;;;;31.67;17.00;;;3.80;99.90;;;;;;5048243;28;20440;-89
2022/01/18 00:42:28;;;;;;;29.70;16.60;;;3.80;99.90;;;;;;5053897;28;20638;-90
2022/01/18 00:45:05;;;;;;;28.67;17.60;;;3.90;99.90;;;;;;5053799;28;20202;-91
2022/01/18 00:47:37;;;;;;;33.37;16.83;;;3.90;99.90;;;;;;5053548;28;20203;-90
2022/01/18 00:50:05;;;;;;;30.50;16.63;;;4.00;99.90;;;;;;5053051;28;20285;-90
2022/01/18 00:52:40;;;;;;;36.97;18.27;;;3.90;99.90;;;;;;5053394;28;20462;-90
2022/01/18 00:55:14;;;;;;;34.23;17.53;;;4.00;99.90;;;;;;5053696;28;20529;-90
2022/01/18 00:57:46;;;;;;;33.87;18.60;;;4.00;99.90;;;;;;5053783;28;21123;-89
2022/01/18 01:00:19;;;;;;;44.67;20.53;;;3.90;99.90;;;;;;5053625;28;20209;-88
2022/01/18 01:02:47;;;;;;;35.20;18.63;;;3.90;99.90;;;;;;5053875;28;20203;-88
2022/01/18 01:05:14;;;;;;;38.37;17.90;;;3.80;99.90;;;;;;5053262;28;20469;-87
2022/01/18 01:07:41;;;;;;;30.73;17.57;;;3.80;99.90;;;;;;5053536;28;20676;-89
2022/01/18 01:10:09;;;;;;;38.43;22.63;;;3.80;99.90;;;;;;5052387;28;20433;-89
2022/01/18 01:12:36;;;;;;;41.63;19.07;;;3.80;99.90;;;;;;5053133;28;20628;-87
2022/01/18 01:15:10;;;;;;;38.57;18.90;;;3.80;99.90;;;;;;5053081;28;20218;-90
2022/01/18 01:17:46;;;;;;;31.63;18.03;;;3.90;99.90;;;;;;5053877;28;20205;-88
2022/01/18 01:34:29;;;;;;;32.80;18.50;;;4.00;99.90;;;;;;5053536;28;20485;-88
2022/01/18 01:43:13;;;;;;;36.13;19.03;;;4.40;99.90;;;;;;5056896;28;20190;-90
2022/01/18 01:45:43;;;;;;;32.77;19.20;;;4.40;99.90;;;;;;5056652;28;20217;-89
2022/01/18 01:48:13;;;;;;;29.93;18.50;;;4.40;99.90;;;;;;5038716;28;20203;-87
2022/01/18 01:50:51;;;;;;;39.20;19.17;;;4.50;99.90;;;;;;5056752;28;20654;-89
2022/01/18 01:53:25;;;;;;;32.97;17.63;;;4.50;99.90;;;;;;5056758;28;20206;-89
2022/01/18 01:55:55;;;;;;;31.70;17.17;;;4.60;99.90;;;;;;5038976;28;20226;-89
2022/01/18 01:58:28;;;;;;;26.43;16.23;;;4.40;99.90;;;;;;5057076;28;20218;-90
2022/01/18 02:01:06;;;;;;;28.73;16.47;;;4.50;99.90;;;;;;5056681;28;20206;-89
2022/01/18 02:04:02;;;;;;;26.27;16.57;;;4.50;99.90;;;;;;5056229;28;20210;-89
2022/01/18 02:06:32;;;;;;;26.73;15.30;;;4.80;99.90;;;;;;5054794;28;20217;-91
2022/01/18 02:09:00;;;;;;;29.67;16.87;;;4.60;99.90;;;;;;5056109;28;20206;-88
2022/01/18 02:11:33;;;;;;;24.07;15.83;;;4.50;99.90;;;;;;5055961;28;20206;-89
2022/01/18 02:14:14;;;;;;;27.17;15.40;;;4.70;99.90;;;;;;5055832;28;20642;-90
2022/01/18 02:22:14;;;;;;;22.10;15.10;;;5.10;99.90;;;;;;5035997;28;20607;-91
2022/01/18 02:24:42;;;;;;;23.17;14.97;;;5.20;99.90;;;;;;5035894;28;20214;-90
2022/01/18 02:27:14;;;;;;;19.97;14.93;;;5.30;99.90;;;;;;5036070;28;20199;-89
2022/01/18 02:29:41;;;;;;;21.60;15.53;;;5.20;99.90;;;;;;5037856;28;20243;-88
2022/01/18 02:32:19;;;;;;;22.23;15.53;;;5.30;99.90;;;;;;5055970;28;20268;-90
2022/01/18 02:34:46;;;;;;;20.03;15.47;;;5.40;99.90;;;;;;5055496;28;20226;-92
2022/01/18 02:37:36;;;;;;;20.33;14.40;;;5.50;99.90;;;;;;5055359;28;20202;-89
2022/01/18 02:40:11;;;;;;;19.13;15.33;;;5.50;99.90;;;;;;5055376;28;20331;-88
2022/01/18 02:42:44;;;;;;;20.63;14.43;;;5.40;99.90;;;;;;5055422;28;20200;-90
2022/01/18 02:45:14;;;;;;;20.70;15.00;;;5.40;99.90;;;;;;5055650;28;20202;-88
2022/01/18 02:47:45;;;;;;;21.50;14.83;;;5.50;99.90;;;;;;5055819;28;20259;-91
2022/01/18 02:50:15;;;;;;;21.10;15.23;;;5.40;99.90;;;;;;5054400;28;20203;-90
2022/01/18 02:52:45;;;;;;;26.00;14.93;;;5.50;99.90;;;;;;5055795;28;20195;-91
2022/01/18 02:55:20;;;;;;;19.23;14.20;;;5.70;99.90;;;;;;5054940;28;20233;-88
2022/01/18 02:57:56;;;;;;;20.03;15.03;;;5.50;99.90;;;;;;5055405;28;20202;-91
2022/01/18 03:00:42;;;;;;;20.27;14.67;;;5.60;99.90;;;;;;5054803;28;20768;-88
2022/01/18 03:03:15;;;;;;;18.13;14.07;;;5.60;99.90;;;;;;5055252;28;20222;-91
2022/01/18 03:05:43;;;;;;;22.17;14.63;;;5.60;99.90;;;;;;5055246;28;20270;-88
2022/01/18 03:08:15;;;;;;;21.42;17.83;;;5.70;99.90;;;;;;5053562;28;20441;-91
2022/01/18 03:10:49;;;;;;;24.20;16.30;;;5.80;99.90;;;;;;5055082;28;20282;-90
2022/01/18 03:14:06;;;;;;;20.47;14.67;;;5.80;99.90;;;;;;5054947;28;20221;-91
2022/01/18 03:16:36;;;;;;;17.67;13.67;;;5.90;99.90;;;;;;5054512;28;20237;-89
2022/01/18 03:19:09;;;;;;;22.07;14.40;;;6.00;99.90;;;;;;5054541;28;20221;-89
2022/01/18 03:21:42;;;;;;;17.87;14.30;;;5.90;99.90;;;;;;5054551;28;20206;-88
2022/01/18 03:24:20;;;;;;;19.87;13.20;;;5.80;99.90;;;;;;5054828;28;20206;-91
2022/01/18 03:29:42;;;;;;;25.10;14.23;;;5.90;99.90;;;;;;5054408;28;20677;-90
2022/01/18 03:32:26;;;;;;;19.23;15.40;;;5.90;99.90;;;;;;5054697;28;20281;-91
2022/01/18 03:34:53;;;;;;;21.60;13.53;;;5.90;99.90;;;;;;5054438;28;20227;-90
2022/01/18 03:37:23;;;;;;;17.63;13.23;;;5.90;99.90;;;;;;5054335;28;20207;-88
2022/01/18 03:39:55;;;;;;;20.58;18.35;;;6.00;99.90;;;;;;5053243;28;20443;-89
2022/01/18 03:42:45;;;;;;;17.60;15.03;;;6.30;99.90;;;;;;5054959;28;20209;-89
2022/01/18 03:45:16;;;;;;;20.03;14.07;;;6.20;99.90;;;;;;5054403;28;20217;-91
2022/01/18 03:47:49;;;;;;;20.80;14.23;;;6.10;99.90;;;;;;5053855;28;20210;-90
2022/01/18 03:50:34;;;;;;;21.00;13.33;;;6.20;99.90;;;;;;5053940;28;20203;-89
2022/01/18 03:53:05;;;;;;;20.87;14.63;;;6.20;99.90;;;;;;5054203;28;20206;-90
2022/01/18 03:55:35;;;;;;;24.10;13.00;;;6.20;99.90;;;;;;5036342;28;20284;-89
2022/01/18 03:58:04;;;;;;;23.17;14.27;;;6.20;99.90;;;;;;5054335;28;20213;-89
2022/01/18 04:00:34;;;;;;;23.60;14.00;;;6.20;99.90;;;;;;5036193;28;20616;-90
2022/01/18 04:03:05;;;;;;;21.80;14.27;;;6.20;99.90;;;;;;5036532;28;20257;-90
2022/01/18 04:05:32;;;;;;;22.60;14.13;;;6.30;99.90;;;;;;5053679;28;20225;-89
2022/01/18 04:08:02;;;;;;;24.17;12.90;;;6.00;99.90;;;;;;5053949;28;20241;-91
2022/01/18 04:10:29;;;;;;;28.07;13.53;;;5.90;99.90;;;;;;5053740;28;20206;-89
2022/01/18 04:12:59;;;;;;;21.77;14.40;;;5.80;99.90;;;;;;5053803;28;20208;-92
2022/01/18 04:15:32;;;;;;;24.70;13.57;;;5.80;99.90;;;;;;5053933;28;20276;-91
2022/01/18 04:26:58;;;;;;;20.60;13.37;;;5.40;99.90;;;;;;5053882;28;20256;-91
2022/01/18 04:29:28;;;;;;;15.07;13.30;;;5.40;99.90;;;;;;5054015;28;20642;-91
2022/01/18 04:31:59;;;;;;;23.03;13.63;;;5.40;99.90;;;;;;5053962;28;20190;-90
2022/01/18 04:34:29;;;;;;;18.83;13.57;;;5.40;99.90;;;;;;5053772;28;20232;-89
2022/01/18 04:37:05;;;;;;;24.80;13.97;;;5.40;99.90;;;;;;5053225;28;20685;-90
2022/01/18 04:39:37;;;;;;;18.03;13.27;;;5.20;99.90;;;;;;5053649;28;20523;-89
2022/01/18 04:42:17;;;;;;;22.73;13.03;;;5.20;99.90;;;;;;5053888;28;20207;-88
2022/01/18 04:50:24;;;;;;;20.97;12.87;;;5.50;99.90;;;;;;5052171;28;20651;-88
2022/01/18 04:52:52;;;;;;;19.97;13.73;;;5.60;99.90;;;;;;5053590;28;20276;-90
2022/01/18 04:55:30;;;;;;;25.33;14.20;;;5.80;99.90;;;;;;5053487;28;20205;-88
2022/01/18 04:57:57;;;;;;;24.07;14.10;;;5.70;99.90;;;;;;5053812;28;20693;-89
2022/01/18 05:00:31;;;;;;;24.40;13.73;;;5.50;99.90;;;;;;5053383;28;20650;-88
2022/01/18 05:02:59;;;;;;;20.30;13.93;;;5.40;99.90;;;;;;5053658;28;20209;-90
2022/01/18 05:05:31;;;;;;;22.47;13.57;;;5.50;99.90;;;;;;5053528;28;20198;-91
2022/01/18 05:08:02;;;;;;;19.20;12.43;;;5.60;99.90;;;;;;5053366;28;20214;-90
2022/01/18 05:10:35;;;;;;;22.83;17.25;;;5.70;99.90;;;;;;5052375;28;20436;-89
2022/01/18 05:13:17;;;;;;;19.37;14.27;;;5.50;99.90;;;;;;5054894;28;20206;-90
2022/01/18 05:15:59;;;;;;;19.97;14.00;;;5.50;99.90;;;;;;5056988;28;20708;-87
2022/01/18 05:21:25;;;;;;;22.43;14.40;;;5.80;99.90;;;;;;5056895;28;20205;-89
2022/01/18 05:23:54;;;;;;;31.47;15.90;;;5.60;99.90;;;;;;5056838;28;20197;-90
2022/01/18 05:26:24;;;;;;;20.40;13.50;;;5.60;99.90;;;;;;5039259;28;20225;-90
2022/01/18 05:28:52;;;;;;;25.90;14.40;;;5.70;99.90;;;;;;5056936;28;20195;-89
2022/01/18 05:31:43;;;;;;;17.17;13.80;;;5.60;99.90;;;;;;5057100;28;20199;-88
2022/01/18 05:34:14;;;;;;;19.93;14.47;;;5.70;99.90;;;;;;5057293;28;20233;-89
2022/01/18 05:36:43;;;;;;;29.87;14.50;;;5.80;99.90;;;;;;5056957;28;20238;-90
2022/01/18 05:39:13;;;;;;;25.97;15.77;;;5.90;99.90;;;;;;5056694;28;20190;-91
2022/01/18 05:41:45;;;;;;;26.55;19.15;;;5.90;99.90;;;;;;5037250;28;20440;-91
2022/01/18 05:44:18;;;;;;;27.77;17.77;;;5.90;99.90;;;;;;5056338;28;20221;-89
2022/01/18 05:46:50;;;;;;;26.27;15.33;;;5.70;99.90;;;;;;5056460;28;20656;-89
2022/01/18 05:50:05;;;;;;;26.53;15.07;;;5.80;99.90;;;;;;5056120;28;20202;-90
2022/01/18 05:52:35;;;;;;;29.17;15.97;;;5.70;99.90;;;;;;5056780;28;20240;-92
2022/01/18 05:55:10;;;;;;;29.47;15.80;;;5.50;99.90;;;;;;5056642;28;20210;-89
2022/01/18 05:57:43;;;;;;;34.90;17.50;;;5.50;99.90;;;;;;5056102;28;20237;-91
2022/01/18 06:00:23;;;;;;;24.03;15.90;;;5.40;99.90;;;;;;5056241;28;20245;-89
2022/01/18 06:03:00;;;;;;;31.63;17.53;;;5.50;99.90;;;;;;5036824;28;20263;-89
2022/01/18 06:08:15;;;;;;;28.97;17.40;;;5.80;99.90;;;;;;5036739;28;20197;-90
2022/01/18 06:10:57;;;;;;;32.60;17.77;;;5.70;99.90;;;;;;5036222;28;20226;-90
2022/01/18 06:13:28;;;;;;;35.37;18.70;;;5.50;99.90;;;;;;5036087;28;20217;-89
2022/01/18 06:15:58;;;;;;;41.27;18.93;;;5.40;99.90;;;;;;5035724;28;20261;-91
2022/01/18 06:18:28;;;;;;;39.27;17.50;;;5.50;99.90;;;;;;5035995;28;20202;-88
2022/01/18 06:21:01;;;;;;;36.20;18.73;;;5.50;99.90;;;;;;5036108;28;20203;-88
2022/01/18 06:23:29;;;;;;;39.53;18.90;;;5.50;99.90;;;;;;5036336;28;20206;-89
2022/01/18 06:25:58;;;;;;;38.90;19.53;;;5.60;99.90;;;;;;5036313;28;20191;-89
2022/01/18 06:28:26;;;;;;;42.23;20.07;;;5.50;99.90;;;;;;5036576;28;20257;-84
2022/01/18 06:30:56;;;;;;;52.47;20.67;;;5.40;99.90;;;;;;5038463;28;20202;-89
2022/01/18 06:33:23;;;;;;;46.87;20.90;;;5.50;99.90;;;;;;5040282;28;20203;-91
2022/01/18 06:35:50;;;;;;;52.27;21.37;;;5.50;99.90;;;;;;5039858;28;20227;-91
2022/01/18 06:38:17;;;;;;;44.47;21.17;;;5.60;99.90;;;;;;5037920;28;20570;-92
2022/01/18 06:40:47;;;;;;;52.60;21.83;;;5.50;99.90;;;;;;5038727;28;20199;-91
2022/01/18 06:43:18;;;;;;;52.40;22.50;;;5.50;99.90;;;;;;5020100;28;20211;-91
2022/01/18 06:45:44;;;;;;;65.78;28.90;;;5.40;99.90;;;;;;5036901;28;20443;-88
2022/01/18 06:48:12;;;;;;;52.40;23.00;;;5.70;99.90;;;;;;5036516;28;20673;-81
2022/01/18 06:50:39;;;;;;;60.27;23.00;;;5.60;99.90;;;;;;5034731;28;20202;-84
2022/01/18 06:53:06;;;;;;;57.07;24.77;;;5.50;99.90;;;;;;5052679;28;20198;-84
2022/01/18 06:55:39;;;;;;;46.87;21.43;;;5.70;99.90;;;;;;5054497;28;20198;-87
2022/01/18 06:58:10;;;;;;;55.03;22.50;;;5.80;99.90;;;;;;5054783;28;20210;-86
2022/01/18 07:00:42;;;;;;;61.20;22.43;;;5.80;99.90;;;;;;5054754;28;20623;-85
2022/01/18 07:03:09;;;;;;;64.90;22.40;;;5.80;99.90;;;;;;5054599;28;20539;-84
2022/01/18 07:05:38;;;;;;;49.87;19.80;;;5.90;99.90;;;;;;5054593;28;20291;-86
2022/01/18 07:08:07;;;;;;;44.20;19.33;;;6.00;99.90;;;;;;5054618;28;20293;-86
2022/01/18 07:10:41;;;;;;;52.27;21.00;;;6.00;99.90;;;;;;5053932;28;20198;-84
2022/01/18 07:13:14;;;;;;;48.77;19.83;;;6.20;99.90;;;;;;5054088;28;20201;-85
2022/01/18 07:15:40;;;;;;;59.13;20.93;;;6.30;99.90;;;;;;5054332;28;20195;-85
2022/01/18 07:18:10;;;;;;;61.70;21.40;;;6.20;99.90;;;;;;5054737;28;20222;-86
2022/01/18 07:20:38;;;;;;;64.10;21.73;;;6.20;99.90;;;;;;5054595;28;20213;-83
2022/01/18 07:23:07;;;;;;;64.03;21.70;;;6.00;99.90;;;;;;5054300;28;20260;-83
2022/01/18 07:25:36;;;;;;;55.77;21.57;;;6.20;99.90;;;;;;5054124;28;20575;-85
2022/01/18 07:28:06;;;;;;;50.80;20.13;;;6.00;99.90;;;;;;5053820;28;20599;-83
2022/01/18 07:30:36;;;;;;;55.10;20.27;;;6.10;99.90;;;;;;5054344;28;20191;-85
2022/01/18 07:33:05;;;;;;;48.33;20.40;;;6.30;99.90;;;;;;5053878;28;20203;-82
2022/01/18 07:35:38;;;;;;;67.97;21.50;;;6.40;99.90;;;;;;5053730;28;20223;-83
2022/01/18 07:38:12;;;;;;;64.13;22.70;;;6.40;99.90;;;;;;5053903;28;20298;-86
2022/01/18 07:40:41;;;;;;;59.87;22.20;;;6.50;99.90;;;;;;5053512;28;20684;-84
2022/01/18 07:43:25;;;;;;;67.70;22.60;;;6.30;99.90;;;;;;5049277;28;20202;-84
2022/01/18 07:45:55;;;;;;;73.80;22.40;;;6.30;99.90;;;;;;5053021;28;20191;-83
2022/01/18 07:48:24;;;;;;;87.38;25.60;;;6.30;99.90;;;;;;5053298;28;20447;-82
2022/01/18 07:50:52;;;;;;;81.93;23.47;;;6.40;99.90;;;;;;5053536;28;20199;-83
2022/01/18 07:53:19;;;;;;;96.20;24.83;;;6.30;99.90;;;;;;5053041;28;20221;-82
2022/01/18 07:55:51;;;;;;;97.07;24.80;;;6.30;99.90;;;;;;5053350;28;20692;-81
2022/01/18 07:58:21;;;;;;;78.80;24.40;;;6.20;99.90;;;;;;5053596;28;20225;-84
2022/01/18 08:00:48;;;;;;;106.87;25.73;;;6.20;99.90;;;;;;5053287;28;20666;-84
2022/01/18 08:03:17;;;;;;;101.93;25.77;;;6.10;99.90;;;;;;5053115;28;20195;-81
2022/01/18 08:05:45;;;;;;;130.50;27.57;;;6.20;99.90;;;;;;5053358;28;20206;-83
2022/01/18 08:08:13;;;;;;;127.20;27.60;;;6.20;99.90;;;;;;5053048;28;20214;-81
2022/01/18 08:10:41;;;;;;;100.80;27.20;;;6.20;99.90;;;;;;5053469;28;20198;-86
2022/01/18 08:13:10;;;;;;;98.80;25.27;;;6.00;99.90;;;;;;5053781;28;20209;-84
2022/01/18 08:15:44;;;;;;;108.17;26.60;;;6.00;99.90;;;;;;5053541;28;20603;-85
2022/01/18 08:18:14;;;;;;;103.97;27.10;;;6.10;99.90;;;;;;5053532;28;20219;-84
2022/01/18 08:20:42;;;;;;;114.23;26.77;;;6.30;99.90;;;;;;5052046;28;20213;-82
2022/01/18 08:23:09;;;;;;;119.73;27.07;;;6.30;99.90;;;;;;5052858;28;20206;-84
2022/01/18 08:25:37;;;;;;;112.87;26.60;;;6.50;99.90;;;;;;5053358;28;20533;-86
2022/01/18 08:28:04;;;;;;;97.23;27.53;;;6.50;99.90;;;;;;5052788;28;20203;-81
2022/01/18 08:30:32;;;;;;;106.37;28.67;;;6.60;99.90;;;;;;5052612;28;20206;-85
2022/01/18 08:33:05;;;;;;;108.80;27.33;;;6.60;99.90;;;;;;5053190;28;20207;-82
2022/01/18 08:35:37;;;;;;;96.30;28.30;;;6.60;99.90;;;;;;5051425;28;20222;-84
2022/01/18 08:38:05;;;;;;;88.47;27.77;;;6.60;99.90;;;;;;5053107;28;20234;-86
2022/01/18 08:40:32;;;;;;;116.27;28.60;;;6.70;99.90;;;;;;5053451;28;20514;-87
2022/01/18 08:43:06;;;;;;;123.90;29.90;;;6.40;99.90;;;;;;5053469;28;20198;-86
2022/01/18 08:45:34;;;;;;;134.43;30.53;;;6.30;99.90;;;;;;5053396;28;20210;-85
2022/01/18 08:48:02;;;;;;;100.70;28.60;;;6.40;99.90;;;;;;5054316;28;20206;-84
2022/01/18 08:50:31;;;;;;;106.87;29.80;;;6.60;99.90;;;;;;5056785;28;20661;-83
2022/01/18 08:52:59;;;;;;;92.80;29.83;;;6.80;99.90;;;;;;5059341;28;20230;-87
2022/01/18 08:55:29;;;;;;;118.00;30.17;;;6.80;99.90;;;;;;5057157;28;20201;-83
2022/01/18 08:57:58;;;;;;;105.73;28.90;;;6.90;99.90;;;;;;5056815;28;20226;-89
2022/01/18 09:00:25;;;;;;;112.43;29.60;;;6.90;99.90;;;;;;5056811;28;20289;-86
2022/01/18 09:02:53;;;;;;;106.70;29.90;;;7.00;99.90;;;;;;5056845;28;20202;-88
2022/01/18 09:05:23;;;;;;;121.70;29.30;;;7.00;99.90;;;;;;5057091;28;20206;-84
2022/01/18 09:07:52;;;;;;;133.53;29.20;;;7.00;99.90;;;;;;5056812;28;20682;-84
2022/01/18 09:10:25;;;;;;;102.27;29.03;;;7.20;99.90;;;;;;5056699;28;20249;-86
2022/01/18 09:12:59;;;;;;;118.27;29.87;;;7.00;99.90;;;;;;5056473;28;20256;-86
2022/01/18 09:15:32;;;;;;;119.73;29.17;;;7.30;99.90;;;;;;5057017;28;20210;-83
2022/01/18 09:17:59;;;;;;;136.47;29.20;;;7.20;99.90;;;;;;5056507;28;20225;-83
2022/01/18 09:20:34;;;;;;;109.93;30.17;;;7.20;99.90;;;;;;5056204;28;20646;-85
2022/01/18 09:23:01;;;;;;;131.07;30.93;;;7.30;99.90;;;;;;5056698;28;20210;-85
2022/01/18 09:25:31;;;;;;;128.30;30.13;;;7.30;99.90;;;;;;5056395;28;20548;-86
2022/01/18 09:28:01;;;;;;;143.85;38.40;;;7.30;99.90;;;;;;5055246;28;20441;-86
2022/01/18 09:30:30;;;;;;;135.40;33.10;;;7.40;99.90;;;;;;5056871;28;20286;-84
2022/01/18 09:33:00;;;;;;;132.53;30.07;;;7.50;99.90;;;;;;5056104;28;20684;-84
2022/01/18 09:35:27;;;;;;;132.77;29.97;;;7.60;99.90;;;;;;5055966;28;20242;-84
2022/01/18 09:37:55;;;;;;;148.57;29.80;;;7.70;99.90;;;;;;5055807;28;20709;-83
2022/01/18 09:42:59;;;;;;;142.33;32.37;;;7.60;99.90;;;;;;5136086;27;21000;-84
2022/01/18 09:45:28;;;;;;;131.07;30.50;;;7.60;99.90;;;;;;5135731;28;20192;-85
2022/01/18 09:47:59;;;;;;;157.53;33.03;;;7.60;99.90;;;;;;5134368;27;20204;-87
2022/01/18 09:50:31;;;;;;;153.77;32.30;;;7.50;99.90;;;;;;5132530;28;20245;-85
2022/01/18 09:53:06;;;;;;;135.53;33.43;;;7.50;99.90;;;;;;5132733;28;20192;-86
2022/01/18 09:55:41;;;;;;;128.47;29.27;;;7.50;99.90;;;;;;5130580;28;20207;-82
2022/01/18 09:58:15;;;;;;;140.37;29.70;;;7.40;99.90;;;;;;5131442;28;20199;-83
2022/01/18 10:00:44;;;;;;;125.97;34.93;;;7.60;99.90;;;;;;5130442;28;20472;-85
2022/01/18 10:03:25;;;;;;;114.70;29.47;;;7.90;99.90;;;;;;5131161;28;20188;-85
2022/01/18 10:05:55;;;;;;;110.93;28.87;;;7.80;99.90;;;;;;5130999;28;20631;-84
2022/01/18 10:08:23;;;;;;;113.93;31.83;;;8.00;99.90;;;;;;5131037;28;20260;-85
2022/01/18 10:10:51;;;;;;;98.17;27.80;;;8.10;99.90;;;;;;5130814;27;20248;-82
2022/01/18 10:13:34;;;;;;;93.63;25.97;;;8.10;99.90;;;;;;5131369;28;20204;-89
2022/01/18 10:16:10;;;;;;;95.77;25.57;;;8.00;99.90;;;;;;5131931;28;20192;-89
2022/01/18 10:18:46;;;;;;;89.43;26.17;;;7.80;99.90;;;;;;5131176;28;20222;-87
2022/01/18 10:21:26;;;;;;;88.13;25.53;;;8.00;99.90;;;;;;5131575;27;20222;-91
2022/01/18 10:24:21;;;;;;;87.10;25.23;;;8.10;99.90;;;;;;5132464;28;20198;-91
2022/01/18 10:26:51;;;;;;;94.07;24.43;;;8.20;99.90;;;;;;5111856;28;20261;-88
2022/01/18 10:29:25;;;;;;;84.63;23.70;;;8.10;99.90;;;;;;5133893;28;20203;-84
2022/01/18 10:32:02;;;;;;;86.20;23.43;;;8.10;99.90;;;;;;5130858;28;20624;-85
2022/01/18 10:34:43;;;;;;;82.43;22.77;;;8.20;99.90;;;;;;5127499;28;20269;-82
2022/01/18 10:37:14;;;;;;;82.87;23.97;;;8.20;99.90;;;;;;5110335;28;20253;-83
2022/01/18 10:39:44;;;;;;;78.63;24.33;;;8.30;99.90;;;;;;5109840;28;20208;-81
2022/01/18 10:42:18;;;;;;;86.80;25.20;;;8.40;99.90;;;;;;5110287;28;20696;-87
2022/01/18 10:44:57;;;;;;;76.53;23.13;;;8.50;99.90;;;;;;5110261;28;20552;-84
2022/01/18 10:47:27;;;;;;;72.50;23.93;;;8.50;99.90;;;;;;5109782;28;20218;-85
2022/01/18 10:49:58;;;;;;;84.47;23.67;;;8.20;99.90;;;;;;5110109;28;20195;-84
2022/01/18 10:52:32;;;;;;;71.83;23.67;;;8.50;99.90;;;;;;5106540;28;20231;-82
2022/01/18 10:55:01;;;;;;;79.17;22.20;;;8.70;99.90;;;;;;5096221;28;20197;-84
2022/01/18 10:57:33;;;;;;;71.73;22.60;;;8.90;99.90;;;;;;5096208;28;20642;-84
2022/01/18 11:00:07;;;;;;;78.40;23.20;;;8.20;99.90;;;;;;5096438;28;20208;-85
2022/01/18 11:02:35;;;;;;;72.10;23.20;;;8.40;99.90;;;;;;5096072;28;20220;-82
2022/01/18 11:05:13;;;;;;;73.10;23.67;;;8.70;99.90;;;;;;5096423;28;20194;-84
2022/01/18 11:07:47;;;;;;;74.50;23.07;;;8.90;99.90;;;;;;5096267;28;20536;-84
2022/01/18 11:10:16;;;;;;;67.40;22.73;;;8.90;99.90;;;;;;5095949;28;20211;-84
2022/01/18 11:12:48;;;;;;;72.30;23.17;;;9.00;99.90;;;;;;5096451;28;20197;-83
2022/01/18 11:15:21;;;;;;;70.03;24.60;;;8.60;99.90;;;;;;5096464;28;20232;-84
2022/01/18 11:17:59;;;;;;;57.20;21.47;;;8.80;99.90;;;;;;5095859;28;20212;-86
2022/01/18 11:20:29;;;;;;;62.93;20.77;;;9.00;99.90;;;;;;5096108;28;20607;-86
2022/01/18 11:22:57;;;;;;;59.47;21.63;;;8.80;99.90;;;;;;5095526;28;20698;-83
2022/01/18 11:25:28;;;;;;;64.70;22.17;;;8.70;99.90;;;;;;5095806;28;20231;-86
2022/01/18 11:27:59;;;;;;;59.87;21.70;;;9.00;99.90;;;;;;5095675;28;20608;-87
2022/01/18 11:30:31;;;;;;;54.67;22.87;;;8.80;99.90;;;;;;5095752;28;20189;-83
2022/01/18 11:33:02;;;;;;;49.93;21.07;;;9.00;99.90;;;;;;5095558;28;20211;-84
2022/01/18 11:35:39;;;;;;;61.50;23.10;;;8.80;99.90;;;;;;5095021;28;20678;-82
2022/01/18 11:38:19;;;;;;;52.77;23.33;;;8.70;99.90;;;;;;5095927;28;20620;-85
2022/01/18 11:40:48;;;;;;;53.33;22.33;;;9.10;99.90;;;;;;5095495;28;20204;-84
2022/01/18 11:43:15;;;;;;;54.37;22.63;;;9.00;99.90;;;;;;5095175;28;20233;-85
2022/01/18 11:45:44;;;;;;;54.57;24.17;;;9.00;99.90;;;;;;5094727;28;20212;-85
2022/01/18 11:48:19;;;;;;;59.63;23.67;;;9.10;99.90;;;;;;5095065;28;20193;-85
2022/01/18 11:50:50;;;;;;;55.73;21.60;;;9.30;99.90;;;;;;5095409;28;20193;-85
2022/01/18 11:53:37;;;;;;;47.10;21.60;;;9.30;99.90;;;;;;5095435;28;20632;-85
2022/01/18 11:56:07;;;;;;;52.20;22.57;;;9.50;99.90;;;;;;5100122;28;20185;-85
2022/01/18 11:58:34;;;;;;;49.17;22.13;;;9.20;99.90;;;;;;5088185;28;20248;-85
2022/01/18 12:01:03;;;;;;;48.83;21.23;;;9.10;99.90;;;;;;5074196;28;20212;-86
2022/01/18 12:03:32;;;;;;;43.47;21.10;;;9.40;99.90;;;;;;5074586;28;20261;-86
2022/01/18 12:06:01;;;;;;;41.80;21.57;;;9.30;99.90;;;;;;5073310;28;20206;-87
2022/01/18 12:08:36;;;;;;;51.10;25.13;;;9.50;99.90;;;;;;5074129;28;20459;-87
2022/01/18 12:11:05;;;;;;;44.23;22.20;;;9.40;99.90;;;;;;5083903;28;20205;-82
2022/01/18 12:13:41;;;;;;;48.40;22.80;;;9.70;99.90;;;;;;5086288;28;20205;-86
2022/01/18 12:16:25;;;;;;;44.50;20.70;;;10.00;99.90;;;;;;5074416;28;20229;-85
2022/01/18 12:19:05;;;;;;;46.60;21.27;;;10.40;99.90;;;;;;5074402;28;20560;-86
2022/01/18 12:21:34;;;;;;;45.83;20.87;;;9.90;99.90;;;;;;5074539;28;20294;-85
2022/01/18 12:24:19;;;;;;;46.40;22.17;;;10.20;99.90;;;;;;5074346;28;20195;-87
2022/01/18 12:26:48;;;;;;;39.00;20.20;;;10.10;99.90;;;;;;5075450;28;20202;-87
2022/01/18 12:29:23;;;;;;;44.97;20.43;;;10.00;99.90;;;;;;5074062;28;20198;-87
2022/01/18 12:35:00;;;;;;;42.33;19.90;;;10.00;99.90;;;;;;5075378;28;20221;-85
2022/01/18 12:37:47;;;;;;;51.53;19.67;;;9.60;99.90;;;;;;5094148;28;20226;-86
2022/01/18 12:40:26;;;;;;;41.50;19.50;;;9.60;99.90;;;;;;5094907;28;20189;-88
2022/01/18 12:45:59;;;;;;;42.13;18.20;;;9.10;99.90;;;;;;5094314;28;20192;-87
2022/01/18 12:48:35;;;;;;;43.10;17.90;;;9.10;99.90;;;;;;5094356;28;20232;-84
2022/01/18 12:51:08;;;;;;;45.00;18.67;;;9.30;99.90;;;;;;5093964;28;20643;-85
2022/01/18 12:53:39;;;;;;;42.90;19.67;;;9.60;99.90;;;;;;5092641;28;20201;-88
2022/01/18 12:56:09;;;;;;;42.43;19.90;;;9.50;99.90;;;;;;5093991;28;20219;-85
2022/01/18 12:58:38;;;;;;;44.17;19.17;;;9.80;99.90;;;;;;5093944;28;20193;-84
2022/01/18 13:01:09;;;;;;;40.70;18.47;;;9.90;99.90;;;;;;5094032;28;20208;-84
2022/01/18 13:03:40;;;;;;;40.43;18.50;;;10.10;99.90;;;;;;5093165;28;20324;-86
2022/01/18 13:06:16;;;;;;;46.83;18.43;;;10.40;99.90;;;;;;5094075;28;20191;-86
2022/01/18 13:08:47;;;;;;;42.03;20.80;;;10.50;99.90;;;;;;5093436;28;20212;-83
2022/01/18 13:11:15;;;;;;;51.83;21.53;;;10.50;99.90;;;;;;5094015;28;20190;-86
2022/01/18 13:13:48;;;;;;;54.83;22.27;;;10.50;99.90;;;;;;5092952;28;20218;-81
2022/01/18 13:27:25;;;;;;;50.03;21.50;;;10.40;99.90;;;;;;5100716;28;20221;-81
2022/01/18 13:30:07;;;;;;;45.27;19.47;;;10.50;99.90;;;;;;5100008;28;20256;-89
2022/01/18 13:32:35;;;;;;;38.90;16.30;;;10.30;99.90;;;;;;5099546;28;20273;-84
2022/01/18 13:35:05;;;;;;;32.40;14.83;;;10.00;99.90;;;;;;5097125;28;20271;-82
2022/01/18 13:37:37;;;;;;;32.93;16.07;;;10.00;99.90;;;;;;5096216;28;20205;-82
2022/01/18 13:40:06;;;;;;;37.97;17.60;;;10.10;99.90;;;;;;5093448;28;20190;-84
2022/01/18 13:42:41;;;;;;;37.50;17.70;;;10.20;99.90;;;;;;5092735;28;20275;-83
2022/01/18 13:45:25;;;;;;;43.60;18.13;;;10.30;99.90;;;;;;5094137;28;20201;-91
2022/01/18 13:47:54;;;;;;;44.20;17.70;;;10.30;99.90;;;;;;5093770;28;20209;-88
2022/01/18 13:50:48;;;;;;;35.53;15.77;;;10.40;99.90;;;;;;5093621;28;20293;-90
2022/01/18 13:53:18;;;;;;;36.87;14.70;;;10.40;99.90;;;;;;5094068;28;20644;-88
2022/01/18 13:55:51;;;;;;;36.37;14.27;;;10.30;99.90;;;;;;5094755;28;20664;-88
2022/01/18 13:58:24;;;;;;;33.73;14.03;;;10.40;99.90;;;;;;5094579;28;20190;-90
2022/01/18 14:01:09;;;;;;;35.53;14.57;;;10.20;99.90;;;;;;5093841;28;20190;-92
2022/01/18 14:03:41;;;;;;;32.17;14.80;;;10.30;99.90;;;;;;5094420;28;20234;-91
2022/01/18 14:06:18;;;;;;;31.50;12.10;;;10.30;99.90;;;;;;5098410;28;20209;-92
2022/01/18 14:08:50;;;;;;;30.50;12.60;;;10.30;99.90;;;;;;5100419;28;20258;-84
2022/01/18 14:11:28;;;;;;;30.20;12.30;;;10.40;99.90;;;;;;5100012;28;20209;-84
2022/01/18 14:14:15;;;;;;;31.23;11.50;;;10.50;99.90;;;;;;5096141;28;20209;-86
2022/01/18 14:16:47;;;;;;;32.90;11.77;;;10.50;99.90;;;;;;5103303;28;20201;-93